Sugar Land Regional Airport
KSGR : now visible

Airfield :











YOU CAN JOIN US ON...

 
LOGIN :

Register | Disclaimer

   EN    FR    IT 

 









Legend :    VFR   Marginal VFR   IFR   Intensive IFR   Very Intensive IFR
Visi :
Ceiling :
>= 8 km
>= 3000ft
5 to 8 km
1000 to 3000 ft
1500m to 5 km
500 to 1000 ft
800 to 1500m
200 to 500 ft
< 800m
< 200 ft
Symbols :   Thunderstorms  Fog  Heavy snow  Heavy precipitations  Wind > 20 kt







- Airport Elevation : 82 ft


KSGR - Sugar Land Regional

CURRENT METAR :
  • 191553Z 32015G24KT 10SM CLR 20/08 A3005 RMK AO2 SLP178 T02000078

EXPIRED METARs :
  • 191453Z 34013G23KT 10SM CLR 19/09 A3003 RMK AO2 SLP171 T01890089 51018
  • 191353Z 32011G18KT 10SM CLR 17/09 A3002 RMK AO2 SLP167 T01720089

TAF KSGR
Valid from the 19 at 12:00 until the 20 at 12:00 UTC


191120Z 1912/2012 30006KT P6SM SKC
FM191400 32016G28KT P6SM SKC
FM200100 33006KT P6SM SKC
FM200900 VRB04KT P6SM SKC
KZHU FIR / North America



MET'MAP, your aeronautical weather chart ! - Copyright ORBIFLY December 2007 - Disclaimer

ORBIFLY MET'MAP TEAM :

Programming & Development : Alexandra Zaïnal
Concept & Development : Baudouin d'Aumeries
Co-Development & Prog : Marc-Olivier Méhu
Technical & hardware support : Manuel Goepfert

Contact : metmap@orbifly.com




SOURCES & CREDITS :

   NOAA       Earth
Advisory